UAE656 OMDB-VRMM
Flight info
| Callsign | UAE656 |
|---|---|
| Flight time | N/A |
| Altitude | 31000 |
| Route | ANVIX L223 TARDI N629 GIDAN P570 KITAL L894 ELBET ELBET1A |
| Aircraft | B77W/H-SDE1E2E3FGHIJ2J3J4J5M1RWXY/LB1D1 |
Departure
| Time | N/A |
|---|---|
| Airport | Dubai International Airport (OMDB) |
Arrival
| Time | 2026-04-30 05:59 |
|---|---|
| Airport | Velana International Airport (VRMM) |
| Time | Latitude | Longitude | Altitude | Speed | Heading |
|---|---|---|---|---|---|
| 2026-04-30 05:36 | 5.31344 | 72.42315 | 30909 ft | 470 kts | 150° |
| 2026-04-30 05:36 | 5.25615 | 72.45503 | 30906 ft | 469 kts | 150° |
| 2026-04-30 05:37 | 5.19900 | 72.48684 | 30908 ft | 470 kts | 149° |
| 2026-04-30 05:37 | 5.14185 | 72.51864 | 30907 ft | 470 kts | 150° |
| 2026-04-30 05:38 | 5.08442 | 72.55057 | 30902 ft | 468 kts | 149° |
| 2026-04-30 05:38 | 5.05622 | 72.56625 | 30537 ft | 461 kts | 150° |
| 2026-04-30 05:38 | 5.02815 | 72.58187 | 29940 ft | 458 kts | 150° |
| 2026-04-30 05:39 | 5.00038 | 72.59731 | 29454 ft | 453 kts | 149° |
| 2026-04-30 05:39 | 4.97267 | 72.61271 | 28961 ft | 448 kts | 149° |
| 2026-04-30 05:39 | 4.94554 | 72.62779 | 28464 ft | 444 kts | 149° |
| 2026-04-30 05:39 | 4.91868 | 72.64272 | 27981 ft | 440 kts | 149° |
| 2026-04-30 05:40 | 4.89211 | 72.65749 | 27494 ft | 436 kts | 149° |
| 2026-04-30 05:40 | 4.86539 | 72.67234 | 26982 ft | 433 kts | 149° |
| 2026-04-30 05:40 | 4.84476 | 72.68381 | 26586 ft | 431 kts | 149° |
| 2026-04-30 05:40 | 4.81936 | 72.69792 | 26098 ft | 428 kts | 149° |
| 2026-04-30 05:41 | 4.79335 | 72.71237 | 25585 ft | 425 kts | 149° |
| 2026-04-30 05:41 | 4.76763 | 72.72666 | 25074 ft | 422 kts | 149° |
| 2026-04-30 05:41 | 4.74215 | 72.74082 | 24570 ft | 419 kts | 149° |
| 2026-04-30 05:41 | 4.71660 | 72.75501 | 24052 ft | 416 kts | 149° |
| 2026-04-30 05:42 | 4.69139 | 72.76901 | 23539 ft | 413 kts | 149° |
| 2026-04-30 05:42 | 4.66647 | 72.78285 | 23039 ft | 410 kts | 148° |
| 2026-04-30 05:42 | 4.64150 | 72.79672 | 22529 ft | 407 kts | 148° |
| 2026-04-30 05:42 | 4.61654 | 72.81059 | 22026 ft | 405 kts | 148° |
| 2026-04-30 05:43 | 4.59192 | 72.82426 | 21530 ft | 402 kts | 148° |
| 2026-04-30 05:43 | 4.56765 | 72.83773 | 21027 ft | 400 kts | 148° |
| 2026-04-30 05:43 | 4.54333 | 72.85123 | 20520 ft | 398 kts | 148° |
| 2026-04-30 05:43 | 4.51922 | 72.86462 | 20009 ft | 396 kts | 148° |
| 2026-04-30 05:44 | 4.49498 | 72.87807 | 19489 ft | 394 kts | 148° |
| 2026-04-30 05:44 | 4.47097 | 72.89140 | 18975 ft | 392 kts | 148° |
| 2026-04-30 05:44 | 4.44710 | 72.90465 | 18465 ft | 390 kts | 148° |
| 2026-04-30 05:44 | 4.42324 | 72.91789 | 17946 ft | 388 kts | 148° |
| 2026-04-30 05:45 | 4.39993 | 72.93082 | 17441 ft | 387 kts | 148° |
| 2026-04-30 05:45 | 4.37641 | 72.94388 | 16931 ft | 385 kts | 148° |
| 2026-04-30 05:45 | 4.35302 | 72.95686 | 16416 ft | 383 kts | 148° |
| 2026-04-30 05:45 | 4.32979 | 72.96975 | 15907 ft | 381 kts | 149° |
| 2026-04-30 05:46 | 4.30661 | 72.98261 | 15399 ft | 379 kts | 149° |
| 2026-04-30 05:46 | 4.28343 | 72.99547 | 14883 ft | 377 kts | 149° |
| 2026-04-30 05:46 | 4.26058 | 73.00815 | 14374 ft | 375 kts | 149° |
| 2026-04-30 05:46 | 4.23786 | 73.02075 | 13869 ft | 373 kts | 149° |
| 2026-04-30 05:47 | 4.21515 | 73.03334 | 13367 ft | 371 kts | 149° |
| 2026-04-30 05:47 | 4.19255 | 73.04588 | 12869 ft | 368 kts | 150° |
| 2026-04-30 05:47 | 4.17023 | 73.05825 | 12371 ft | 366 kts | 150° |
| 2026-04-30 05:47 | 4.14791 | 73.07063 | 11869 ft | 364 kts | 150° |
| 2026-04-30 05:48 | 4.12571 | 73.08294 | 11368 ft | 363 kts | 150° |
| 2026-04-30 05:48 | 4.10365 | 73.09518 | 10880 ft | 360 kts | 150° |
| 2026-04-30 05:48 | 4.08186 | 73.10725 | 10493 ft | 355 kts | 151° |
| 2026-04-30 05:48 | 4.06072 | 73.11897 | 10401 ft | 341 kts | 151° |
| 2026-04-30 05:49 | 4.04042 | 73.13023 | 10331 ft | 327 kts | 151° |
| 2026-04-30 05:49 | 4.02078 | 73.14111 | 10238 ft | 314 kts | 151° |
| 2026-04-30 05:49 | 4.00198 | 73.15153 | 10175 ft | 301 kts | 151° |
| 2026-04-30 05:49 | 3.98399 | 73.16151 | 10080 ft | 291 kts | 151° |
| 2026-04-30 05:50 | 3.96667 | 73.17200 | 9760 ft | 289 kts | 140° |
| 2026-04-30 05:50 | 3.95442 | 73.18774 | 9365 ft | 291 kts | 114° |
| 2026-04-30 05:50 | 3.94968 | 73.20744 | 9006 ft | 291 kts | 96° |
| 2026-04-30 05:50 | 3.94870 | 73.22749 | 8663 ft | 291 kts | 91° |
| 2026-04-30 05:51 | 3.94858 | 73.24779 | 8312 ft | 291 kts | 91° |
| 2026-04-30 05:51 | 3.94859 | 73.26797 | 7964 ft | 291 kts | 91° |
| 2026-04-30 05:51 | 3.94860 | 73.28810 | 7618 ft | 291 kts | 90° |
| 2026-04-30 05:51 | 3.94862 | 73.30832 | 7270 ft | 290 kts | 90° |
| 2026-04-30 05:52 | 3.94867 | 73.32856 | 6923 ft | 290 kts | 90° |
| 2026-04-30 05:52 | 3.94873 | 73.34864 | 6584 ft | 287 kts | 90° |
| 2026-04-30 05:52 | 3.94878 | 73.36848 | 6255 ft | 283 kts | 90° |
| 2026-04-30 05:52 | 3.94883 | 73.38821 | 5920 ft | 281 kts | 90° |
| 2026-04-30 05:53 | 3.94887 | 73.40768 | 5593 ft | 279 kts | 90° |
| 2026-04-30 05:53 | 3.94891 | 73.42696 | 5290 ft | 277 kts | 90° |
| 2026-04-30 05:53 | 3.94894 | 73.44597 | 5041 ft | 273 kts | 89° |
| 2026-04-30 05:53 | 3.94915 | 73.46491 | 4775 ft | 269 kts | 91° |
| 2026-04-30 05:54 | 3.94903 | 73.48344 | 4518 ft | 265 kts | 90° |
| 2026-04-30 05:54 | 3.95053 | 73.50162 | 4256 ft | 259 kts | 72° |
| 2026-04-30 05:54 | 3.95947 | 73.51684 | 4002 ft | 247 kts | 45° |
| 2026-04-30 05:54 | 3.97300 | 73.52638 | 3915 ft | 236 kts | 19° |
| 2026-04-30 05:55 | 3.98910 | 73.52978 | 3610 ft | 234 kts | 4° |
| 2026-04-30 05:55 | 4.00528 | 73.53091 | 3319 ft | 231 kts | 0° |
| 2026-04-30 05:55 | 4.02125 | 73.53128 | 3037 ft | 228 kts | 358° |
| 2026-04-30 05:55 | 4.03705 | 73.53133 | 2759 ft | 224 kts | 358° |
| 2026-04-30 05:56 | 4.05256 | 73.53124 | 2477 ft | 218 kts | 357° |
| 2026-04-30 05:56 | 4.06755 | 73.53115 | 2206 ft | 212 kts | 357° |
| 2026-04-30 05:56 | 4.08184 | 73.53110 | 1944 ft | 197 kts | 357° |
| 2026-04-30 05:56 | 4.09530 | 73.53107 | 1698 ft | 187 kts | 357° |
| 2026-04-30 05:57 | 4.10787 | 73.53106 | 1478 ft | 172 kts | 357° |
| 2026-04-30 05:57 | 4.11958 | 73.53105 | 1263 ft | 164 kts | 357° |
| 2026-04-30 05:57 | 4.13104 | 73.53104 | 1052 ft | 162 kts | 357° |
| 2026-04-30 05:57 | 4.14229 | 73.53104 | 840 ft | 161 kts | 357° |
| 2026-04-30 05:58 | 4.15360 | 73.53104 | 625 ft | 161 kts | 357° |
| 2026-04-30 05:58 | 4.16474 | 73.53108 | 425 ft | 161 kts | 357° |
| 2026-04-30 05:58 | 4.17611 | 73.53103 | 223 ft | 161 kts | 357° |
| 2026-04-30 05:58 | 4.18740 | 73.53104 | 27 ft | 160 kts | 357° |
| 2026-04-30 05:59 | 4.19716 | 73.53094 | 18 ft | 113 kts | 358° |
| 2026-04-30 05:59 | 4.20336 | 73.53101 | 17 ft | 74 kts | 360° |
| 2026-04-30 05:59 | 4.20689 | 73.53101 | 16 ft | 63 kts | 359° |
| 2026-04-30 05:59 | 4.21062 | 73.53101 | 14 ft | 40 kts | 0° |
| 2026-04-30 06:00 | 4.21210 | 73.53101 | 14 ft | 10 kts | 356° |
| 2026-04-30 06:00 | 4.21248 | 73.53056 | 15 ft | 9 kts | 274° |
| 2026-04-30 06:00 | 4.21225 | 73.53003 | 14 ft | 8 kts | 210° |
| 2026-04-30 06:00 | 4.21164 | 73.52985 | 14 ft | 9 kts | 194° |
| 2026-04-30 06:01 | 4.21102 | 73.52969 | 14 ft | 10 kts | 195° |
| 2026-04-30 06:01 | 4.21022 | 73.52947 | 14 ft | 13 kts | 195° |
| 2026-04-30 06:01 | 4.20947 | 73.52953 | 14 ft | 10 kts | 137° |
| 2026-04-30 06:01 | 4.20930 | 73.53017 | 14 ft | 9 kts | 90° |
| 2026-04-30 06:02 | 4.20924 | 73.53082 | 14 ft | 8 kts | 118° |
| 2026-04-30 06:02 | 4.20874 | 73.53098 | 15 ft | 8 kts | 175° |
| 2026-04-30 06:02 | 4.20798 | 73.53102 | 15 ft | 12 kts | 180° |
| 2026-04-30 06:02 | 4.20695 | 73.53101 | 16 ft | 16 kts | 181° |
| 2026-04-30 06:03 | 4.20565 | 73.53098 | 17 ft | 20 kts | 180° |
| 2026-04-30 06:03 | 4.20410 | 73.53098 | 17 ft | 23 kts | 180° |
| 2026-04-30 06:03 | 4.20235 | 73.53101 | 16 ft | 26 kts | 180° |
| 2026-04-30 06:03 | 4.20046 | 73.53101 | 16 ft | 27 kts | 180° |
| 2026-04-30 06:04 | 4.19846 | 73.53101 | 17 ft | 28 kts | 179° |
| 2026-04-30 06:04 | 4.19658 | 73.53101 | 18 ft | 25 kts | 180° |
| 2026-04-30 06:04 | 4.19490 | 73.53101 | 21 ft | 22 kts | 179° |
| 2026-04-30 06:05 | 4.19217 | 73.53101 | 23 ft | 17 kts | 180° |
| 2026-04-30 06:05 | 4.19100 | 73.53101 | 24 ft | 15 kts | 180° |
| 2026-04-30 06:05 | 4.19034 | 73.53099 | 24 ft | 6 kts | 195° |
| 2026-04-30 06:05 | 4.19011 | 73.53066 | 24 ft | 7 kts | 256° |
| 2026-04-30 06:06 | 4.19008 | 73.53011 | 25 ft | 7 kts | 270° |
| 2026-04-30 06:06 | 4.19008 | 73.52962 | 25 ft | 6 kts | 269° |
| 2026-04-30 06:06 | 4.18984 | 73.52924 | 25 ft | 8 kts | 199° |
| 2026-04-30 06:06 | 4.18918 | 73.52919 | 25 ft | 9 kts | 180° |
| 2026-04-30 06:07 | 4.18855 | 73.52920 | 25 ft | 8 kts | 179° |
| 2026-04-30 06:07 | 4.18795 | 73.52921 | 25 ft | 8 kts | 179° |
| 2026-04-30 06:07 | 4.18734 | 73.52921 | 24 ft | 9 kts | 178° |
| 2026-04-30 06:07 | 4.18658 | 73.52924 | 23 ft | 11 kts | 179° |
| 2026-04-30 06:08 | 4.18573 | 73.52924 | 22 ft | 12 kts | 179° |
| 2026-04-30 06:08 | 4.18511 | 73.52925 | 22 ft | 5 kts | 183° |
| 2026-04-30 06:08 | 4.18486 | 73.52898 | 22 ft | 6 kts | 258° |
| 2026-04-30 06:08 | 4.18495 | 73.52860 | 22 ft | 5 kts | 298° |
| 2026-04-30 06:09 | 4.18501 | 73.52827 | 23 ft | 5 kts | 269° |
| 2026-04-30 06:09 | 4.18500 | 73.52795 | 22 ft | 1 kts | 269° |
| 2026-04-30 06:09 | 4.18500 | 73.52792 | 22 ft | 0 kts | 269° |